sensor_id;sensor_type;location;lat;lon;timestamp;P1;durP1;ratioP1;P2;durP2;ratioP2
39740;SDS011;25426;53.478;10.190;2023-04-30T00:55:30;12.75;;;4.95;;
39740;SDS011;25426;53.478;10.190;2023-04-30T00:58:01;18.42;;;7.10;;
39740;SDS011;25426;53.478;10.190;2023-04-30T01:00:33;12.60;;;6.32;;
39740;SDS011;25426;53.478;10.190;2023-04-30T01:03:04;12.48;;;6.68;;
39740;SDS011;25426;53.478;10.190;2023-04-30T01:05:35;14.60;;;6.88;;
39740;SDS011;25426;53.478;10.190;2023-04-30T01:08:07;16.13;;;7.45;;
39740;SDS011;25426;53.478;10.190;2023-04-30T01:10:47;13.23;;;7.10;;
39740;SDS011;25426;53.478;10.190;2023-04-30T01:16:09;12.37;;;6.47;;
39740;SDS011;25426;53.478;10.190;2023-04-30T01:18:59;14.40;;;7.25;;
39740;SDS011;25426;53.478;10.190;2023-04-30T01:21:49;14.18;;;6.90;;
39740;SDS011;25426;53.478;10.190;2023-04-30T01:30:36;16.90;;;7.65;;
39740;SDS011;25426;53.478;10.190;2023-04-30T01:33:09;20.73;;;8.30;;
39740;SDS011;25426;53.478;10.190;2023-04-30T01:39:14;13.88;;;7.72;;
39740;SDS011;25426;53.478;10.190;2023-04-30T01:42:49;12.18;;;7.15;;
39740;SDS011;25426;53.478;10.190;2023-04-30T01:49:02;12.43;;;6.60;;
39740;SDS011;25426;53.478;10.190;2023-04-30T01:52:22;13.43;;;6.82;;
39740;SDS011;25426;53.478;10.190;2023-04-30T01:55:27;13.40;;;6.47;;
39740;SDS011;25426;53.478;10.190;2023-04-30T01:58:13;16.30;;;7.18;;
39740;SDS011;25426;53.478;10.190;2023-04-30T02:00:45;14.23;;;7.00;;
39740;SDS011;25426;53.478;10.190;2023-04-30T02:03:16;15.48;;;7.43;;
39740;SDS011;25426;53.478;10.190;2023-04-30T02:05:49;12.13;;;6.60;;
39740;SDS011;25426;53.478;10.190;2023-04-30T02:08:20;19.07;;;7.10;;
39740;SDS011;25426;53.478;10.190;2023-04-30T02:10:51;13.13;;;6.87;;
39740;SDS011;25426;53.478;10.190;2023-04-30T02:13:22;16.13;;;7.00;;
39740;SDS011;25426;53.478;10.190;2023-04-30T02:15:53;12.50;;;6.43;;
39740;SDS011;25426;53.478;10.190;2023-04-30T02:18:24;12.00;;;6.68;;
39740;SDS011;25426;53.478;10.190;2023-04-30T02:20:55;13.05;;;6.75;;
39740;SDS011;25426;53.478;10.190;2023-04-30T02:23:26;13.45;;;6.07;;
39740;SDS011;25426;53.478;10.190;2023-04-30T02:25:57;13.13;;;6.00;;
39740;SDS011;25426;53.478;10.190;2023-04-30T02:28:28;10.93;;;5.80;;
39740;SDS011;25426;53.478;10.190;2023-04-30T02:31:00;12.97;;;6.27;;
39740;SDS011;25426;53.478;10.190;2023-04-30T02:33:31;9.30;;;6.33;;
39740;SDS011;25426;53.478;10.190;2023-04-30T02:36:02;11.27;;;5.78;;
39740;SDS011;25426;53.478;10.190;2023-04-30T02:38:33;13.97;;;7.97;;
39740;SDS011;25426;53.478;10.190;2023-04-30T02:41:04;11.52;;;6.03;;
39740;SDS011;25426;53.478;10.190;2023-04-30T02:43:35;11.40;;;5.68;;
39740;SDS011;25426;53.478;10.190;2023-04-30T02:46:06;18.10;;;8.57;;
39740;SDS011;25426;53.478;10.190;2023-04-30T02:48:37;12.27;;;6.93;;
39740;SDS011;25426;53.478;10.190;2023-04-30T02:51:08;10.80;;;6.22;;
39740;SDS011;25426;53.478;10.190;2023-04-30T02:53:39;11.47;;;6.43;;
39740;SDS011;25426;53.478;10.190;2023-04-30T02:56:10;9.43;;;5.83;;
39740;SDS011;25426;53.478;10.190;2023-04-30T02:58:41;9.73;;;5.43;;
39740;SDS011;25426;53.478;10.190;2023-04-30T03:01:12;8.90;;;4.97;;
39740;SDS011;25426;53.478;10.190;2023-04-30T03:03:43;12.38;;;6.03;;
39740;SDS011;25426;53.478;10.190;2023-04-30T03:06:14;12.02;;;6.55;;
39740;SDS011;25426;53.478;10.190;2023-04-30T03:08:45;13.82;;;6.50;;
39740;SDS011;25426;53.478;10.190;2023-04-30T03:11:16;13.80;;;8.13;;
39740;SDS011;25426;53.478;10.190;2023-04-30T03:13:47;12.63;;;6.47;;
39740;SDS011;25426;53.478;10.190;2023-04-30T03:16:22;12.40;;;6.60;;
39740;SDS011;25426;53.478;10.190;2023-04-30T03:18:53;9.50;;;5.40;;
39740;SDS011;25426;53.478;10.190;2023-04-30T03:21:24;10.90;;;6.23;;
39740;SDS011;25426;53.478;10.190;2023-04-30T03:23:56;10.88;;;6.70;;
39740;SDS011;25426;53.478;10.190;2023-04-30T03:26:27;11.90;;;6.73;;
39740;SDS011;25426;53.478;10.190;2023-04-30T03:28:58;8.40;;;5.40;;
39740;SDS011;25426;53.478;10.190;2023-04-30T03:31:30;12.30;;;6.53;;
39740;SDS011;25426;53.478;10.190;2023-04-30T03:34:01;10.40;;;5.75;;
39740;SDS011;25426;53.478;10.190;2023-04-30T03:36:32;9.80;;;5.68;;
39740;SDS011;25426;53.478;10.190;2023-04-30T03:39:03;10.83;;;6.30;;
39740;SDS011;25426;53.478;10.190;2023-04-30T03:41:34;11.35;;;6.50;;
39740;SDS011;25426;53.478;10.190;2023-04-30T03:44:05;9.82;;;6.15;;
39740;SDS011;25426;53.478;10.190;2023-04-30T03:46:43;9.90;;;6.23;;
39740;SDS011;25426;53.478;10.190;2023-04-30T03:49:14;11.23;;;6.43;;
39740;SDS011;25426;53.478;10.190;2023-04-30T03:51:45;15.43;;;7.60;;
39740;SDS011;25426;53.478;10.190;2023-04-30T03:54:16;11.02;;;6.05;;
39740;SDS011;25426;53.478;10.190;2023-04-30T03:56:47;10.90;;;5.55;;
39740;SDS011;25426;53.478;10.190;2023-04-30T03:59:18;13.35;;;6.53;;
39740;SDS011;25426;53.478;10.190;2023-04-30T04:01:50;8.80;;;5.75;;
39740;SDS011;25426;53.478;10.190;2023-04-30T04:04:21;8.20;;;5.63;;
39740;SDS011;25426;53.478;10.190;2023-04-30T04:06:52;12.90;;;7.60;;
39740;SDS011;25426;53.478;10.190;2023-04-30T04:09:23;10.23;;;6.20;;
39740;SDS011;25426;53.478;10.190;2023-04-30T04:11:53;10.77;;;6.88;;
39740;SDS011;25426;53.478;10.190;2023-04-30T04:14:25;11.20;;;6.50;;
39740;SDS011;25426;53.478;10.190;2023-04-30T04:16:56;12.20;;;6.43;;
39740;SDS011;25426;53.478;10.190;2023-04-30T04:19:28;9.38;;;5.60;;
39740;SDS011;25426;53.478;10.190;2023-04-30T04:22:01;14.38;;;8.02;;
39740;SDS011;25426;53.478;10.190;2023-04-30T04:24:32;19.27;;;7.68;;
39740;SDS011;25426;53.478;10.190;2023-04-30T04:27:03;11.25;;;7.43;;
39740;SDS011;25426;53.478;10.190;2023-04-30T04:29:35;10.88;;;7.13;;
39740;SDS011;25426;53.478;10.190;2023-04-30T04:32:07;9.75;;;6.13;;
39740;SDS011;25426;53.478;10.190;2023-04-30T04:34:39;11.07;;;6.15;;
39740;SDS011;25426;53.478;10.190;2023-04-30T04:37:12;15.07;;;8.25;;
39740;SDS011;25426;53.478;10.190;2023-04-30T04:39:43;14.77;;;8.05;;
39740;SDS011;25426;53.478;10.190;2023-04-30T04:42:14;12.87;;;7.87;;
39740;SDS011;25426;53.478;10.190;2023-04-30T04:44:46;12.32;;;8.00;;
39740;SDS011;25426;53.478;10.190;2023-04-30T04:47:17;13.75;;;7.90;;
39740;SDS011;25426;53.478;10.190;2023-04-30T04:49:50;11.45;;;6.53;;
39740;SDS011;25426;53.478;10.190;2023-04-30T04:52:21;11.27;;;6.53;;
39740;SDS011;25426;53.478;10.190;2023-04-30T04:54:52;11.68;;;6.45;;
39740;SDS011;25426;53.478;10.190;2023-04-30T04:57:23;13.68;;;6.43;;
39740;SDS011;25426;53.478;10.190;2023-04-30T04:59:54;12.00;;;6.45;;
39740;SDS011;25426;53.478;10.190;2023-04-30T05:02:25;10.88;;;6.53;;
39740;SDS011;25426;53.478;10.190;2023-04-30T05:04:56;13.55;;;6.82;;
39740;SDS011;25426;53.478;10.190;2023-04-30T05:07:27;10.33;;;6.50;;
39740;SDS011;25426;53.478;10.190;2023-04-30T05:09:59;11.00;;;7.13;;
39740;SDS011;25426;53.478;10.190;2023-04-30T05:12:29;12.20;;;6.97;;
39740;SDS011;25426;53.478;10.190;2023-04-30T05:15:00;14.90;;;7.60;;
39740;SDS011;25426;53.478;10.190;2023-04-30T05:17:31;14.10;;;7.68;;
39740;SDS011;25426;53.478;10.190;2023-04-30T05:20:02;14.55;;;7.55;;
39740;SDS011;25426;53.478;10.190;2023-04-30T05:22:36;15.40;;;8.32;;
39740;SDS011;25426;53.478;10.190;2023-04-30T05:25:07;13.75;;;7.80;;
39740;SDS011;25426;53.478;10.190;2023-04-30T05:27:38;13.82;;;8.45;;
39740;SDS011;25426;53.478;10.190;2023-04-30T05:30:10;17.30;;;8.40;;
39740;SDS011;25426;53.478;10.190;2023-04-30T05:32:41;12.32;;;8.35;;
39740;SDS011;25426;53.478;10.190;2023-04-30T05:35:12;14.18;;;8.55;;
39740;SDS011;25426;53.478;10.190;2023-04-30T05:37:43;14.93;;;8.35;;
39740;SDS011;25426;53.478;10.190;2023-04-30T05:40:15;14.00;;;8.40;;
39740;SDS011;25426;53.478;10.190;2023-04-30T05:42:46;15.10;;;8.32;;
39740;SDS011;25426;53.478;10.190;2023-04-30T05:45:17;14.32;;;8.35;;
39740;SDS011;25426;53.478;10.190;2023-04-30T05:47:48;14.73;;;8.30;;
39740;SDS011;25426;53.478;10.190;2023-04-30T05:50:19;14.95;;;8.18;;
39740;SDS011;25426;53.478;10.190;2023-04-30T05:52:49;13.70;;;8.40;;
39740;SDS011;25426;53.478;10.190;2023-04-30T05:55:21;18.30;;;9.02;;
39740;SDS011;25426;53.478;10.190;2023-04-30T05:57:52;14.50;;;8.35;;
39740;SDS011;25426;53.478;10.190;2023-04-30T06:00:23;14.25;;;8.38;;
39740;SDS011;25426;53.478;10.190;2023-04-30T06:02:54;13.85;;;8.23;;
39740;SDS011;25426;53.478;10.190;2023-04-30T06:05:28;13.70;;;8.55;;
39740;SDS011;25426;53.478;10.190;2023-04-30T06:07:59;14.10;;;8.43;;
39740;SDS011;25426;53.478;10.190;2023-04-30T06:10:30;12.98;;;7.28;;
39740;SDS011;25426;53.478;10.190;2023-04-30T06:13:01;14.68;;;7.50;;
39740;SDS011;25426;53.478;10.190;2023-04-30T06:15:32;14.65;;;8.27;;
39740;SDS011;25426;53.478;10.190;2023-04-30T06:18:03;12.93;;;7.15;;
39740;SDS011;25426;53.478;10.190;2023-04-30T06:20:34;14.68;;;8.18;;
39740;SDS011;25426;53.478;10.190;2023-04-30T06:23:05;12.15;;;7.35;;
39740;SDS011;25426;53.478;10.190;2023-04-30T06:25:36;16.70;;;7.57;;
39740;SDS011;25426;53.478;10.190;2023-04-30T06:28:07;10.80;;;6.60;;
39740;SDS011;25426;53.478;10.190;2023-04-30T06:30:39;12.05;;;6.55;;
39740;SDS011;25426;53.478;10.190;2023-04-30T06:33:10;10.18;;;5.80;;
39740;SDS011;25426;53.478;10.190;2023-04-30T06:35:41;13.60;;;6.50;;
39740;SDS011;25426;53.478;10.190;2023-04-30T06:38:15;10.75;;;5.25;;
39740;SDS011;25426;53.478;10.190;2023-04-30T06:40:47;12.18;;;5.00;;
39740;SDS011;25426;53.478;10.190;2023-04-30T06:43:18;11.48;;;5.20;;
39740;SDS011;25426;53.478;10.190;2023-04-30T06:45:51;11.43;;;5.07;;
39740;SDS011;25426;53.478;10.190;2023-04-30T06:48:22;10.95;;;4.70;;
39740;SDS011;25426;53.478;10.190;2023-04-30T06:50:53;11.13;;;4.40;;
39740;SDS011;25426;53.478;10.190;2023-04-30T06:53:24;7.35;;;4.03;;
39740;SDS011;25426;53.478;10.190;2023-04-30T06:55:55;9.27;;;3.58;;
39740;SDS011;25426;53.478;10.190;2023-04-30T06:58:26;9.00;;;3.93;;
39740;SDS011;25426;53.478;10.190;2023-04-30T07:00:57;8.57;;;3.43;;
39740;SDS011;25426;53.478;10.190;2023-04-30T07:03:28;7.50;;;4.20;;
39740;SDS011;25426;53.478;10.190;2023-04-30T07:05:59;9.18;;;3.70;;
39740;SDS011;25426;53.478;10.190;2023-04-30T07:08:30;9.30;;;3.87;;
39740;SDS011;25426;53.478;10.190;2023-04-30T07:11:01;8.48;;;3.30;;
39740;SDS011;25426;53.478;10.190;2023-04-30T07:13:32;8.10;;;3.63;;
39740;SDS011;25426;53.478;10.190;2023-04-30T07:16:04;9.05;;;3.50;;
39740;SDS011;25426;53.478;10.190;2023-04-30T07:18:35;7.30;;;3.47;;
39740;SDS011;25426;53.478;10.190;2023-04-30T07:21:07;8.77;;;3.63;;
39740;SDS011;25426;53.478;10.190;2023-04-30T07:23:38;9.15;;;3.72;;
39740;SDS011;25426;53.478;10.190;2023-04-30T07:26:08;8.10;;;3.33;;
39740;SDS011;25426;53.478;10.190;2023-04-30T07:28:39;5.57;;;3.00;;
39740;SDS011;25426;53.478;10.190;2023-04-30T07:31:10;11.02;;;4.20;;
39740;SDS011;25426;53.478;10.190;2023-04-30T07:33:41;8.98;;;3.55;;
39740;SDS011;25426;53.478;10.190;2023-04-30T07:36:14;6.60;;;3.20;;
39740;SDS011;25426;53.478;10.190;2023-04-30T07:38:45;8.00;;;3.33;;
39740;SDS011;25426;53.478;10.190;2023-04-30T07:41:16;8.57;;;3.63;;
39740;SDS011;25426;53.478;10.190;2023-04-30T07:46:30;7.30;;;3.70;;
39740;SDS011;25426;53.478;10.190;2023-04-30T07:49:01;10.38;;;3.75;;
39740;SDS011;25426;53.478;10.190;2023-04-30T07:51:33;8.80;;;3.75;;
39740;SDS011;25426;53.478;10.190;2023-04-30T07:54:04;9.40;;;3.40;;
39740;SDS011;25426;53.478;10.190;2023-04-30T07:56:35;8.27;;;3.28;;
39740;SDS011;25426;53.478;10.190;2023-04-30T07:59:06;7.85;;;3.80;;
39740;SDS011;25426;53.478;10.190;2023-04-30T08:01:37;6.57;;;3.27;;
39740;SDS011;25426;53.478;10.190;2023-04-30T08:04:08;7.90;;;3.42;;
39740;SDS011;25426;53.478;10.190;2023-04-30T08:06:39;9.45;;;3.78;;
39740;SDS011;25426;53.478;10.190;2023-04-30T08:09:10;8.83;;;3.70;;
39740;SDS011;25426;53.478;10.190;2023-04-30T08:11:41;8.55;;;3.75;;
39740;SDS011;25426;53.478;10.190;2023-04-30T08:14:12;7.22;;;2.95;;
39740;SDS011;25426;53.478;10.190;2023-04-30T08:16:43;7.90;;;3.67;;
39740;SDS011;25426;53.478;10.190;2023-04-30T08:19:14;7.53;;;3.58;;
39740;SDS011;25426;53.478;10.190;2023-04-30T08:21:45;8.47;;;3.33;;
39740;SDS011;25426;53.478;10.190;2023-04-30T08:24:16;7.03;;;3.42;;
39740;SDS011;25426;53.478;10.190;2023-04-30T08:26:47;9.03;;;3.60;;
39740;SDS011;25426;53.478;10.190;2023-04-30T08:29:18;9.40;;;3.60;;
39740;SDS011;25426;53.478;10.190;2023-04-30T08:31:49;6.47;;;2.90;;
39740;SDS011;25426;53.478;10.190;2023-04-30T08:34:19;7.82;;;3.20;;
39740;SDS011;25426;53.478;10.190;2023-04-30T08:36:50;11.25;;;3.10;;
39740;SDS011;25426;53.478;10.190;2023-04-30T08:39:21;6.93;;;3.33;;
39740;SDS011;25426;53.478;10.190;2023-04-30T08:41:56;5.75;;;3.17;;
39740;SDS011;25426;53.478;10.190;2023-04-30T08:44:33;6.60;;;3.10;;
39740;SDS011;25426;53.478;10.190;2023-04-30T08:47:05;8.95;;;3.67;;
39740;SDS011;25426;53.478;10.190;2023-04-30T08:49:37;6.60;;;3.30;;
39740;SDS011;25426;53.478;10.190;2023-04-30T08:52:08;6.95;;;3.45;;
39740;SDS011;25426;53.478;10.190;2023-04-30T08:54:40;7.37;;;3.10;;
39740;SDS011;25426;53.478;10.190;2023-04-30T08:57:12;7.25;;;3.53;;
39740;SDS011;25426;53.478;10.190;2023-04-30T08:59:46;7.68;;;3.63;;
39740;SDS011;25426;53.478;10.190;2023-04-30T09:02:17;7.43;;;3.57;;
39740;SDS011;25426;53.478;10.190;2023-04-30T09:04:48;7.05;;;3.13;;
39740;SDS011;25426;53.478;10.190;2023-04-30T09:07:18;6.35;;;3.05;;
39740;SDS011;25426;53.478;10.190;2023-04-30T09:09:53;6.15;;;3.15;;
39740;SDS011;25426;53.478;10.190;2023-04-30T09:12:24;8.82;;;3.55;;
39740;SDS011;25426;53.478;10.190;2023-04-30T09:15:03;8.43;;;3.67;;
39740;SDS011;25426;53.478;10.190;2023-04-30T09:17:35;8.37;;;3.50;;
39740;SDS011;25426;53.478;10.190;2023-04-30T09:20:10;8.30;;;3.53;;
39740;SDS011;25426;53.478;10.190;2023-04-30T09:22:42;6.07;;;3.17;;
39740;SDS011;25426;53.478;10.190;2023-04-30T09:25:13;8.20;;;3.25;;
39740;SDS011;25426;53.478;10.190;2023-04-30T09:27:45;7.20;;;2.95;;
39740;SDS011;25426;53.478;10.190;2023-04-30T09:30:29;7.40;;;3.33;;
39740;SDS011;25426;53.478;10.190;2023-04-30T09:33:03;7.77;;;3.80;;
39740;SDS011;25426;53.478;10.190;2023-04-30T09:35:35;11.43;;;3.67;;
39740;SDS011;25426;53.478;10.190;2023-04-30T09:38:25;5.80;;;3.08;;
39740;SDS011;25426;53.478;10.190;2023-04-30T09:41:01;7.10;;;3.25;;
39740;SDS011;25426;53.478;10.190;2023-04-30T09:43:32;6.70;;;3.53;;
39740;SDS011;25426;53.478;10.190;2023-04-30T09:46:03;7.10;;;3.25;;
39740;SDS011;25426;53.478;10.190;2023-04-30T09:48:34;8.03;;;3.47;;
39740;SDS011;25426;53.478;10.190;2023-04-30T09:51:05;8.45;;;3.53;;
39740;SDS011;25426;53.478;10.190;2023-04-30T09:53:36;6.13;;;2.90;;
39740;SDS011;25426;53.478;10.190;2023-04-30T09:56:07;7.85;;;3.10;;
39740;SDS011;25426;53.478;10.190;2023-04-30T09:58:42;7.45;;;3.53;;
39740;SDS011;25426;53.478;10.190;2023-04-30T10:01:14;6.50;;;3.13;;
39740;SDS011;25426;53.478;10.190;2023-04-30T10:03:45;7.95;;;3.13;;
39740;SDS011;25426;53.478;10.190;2023-04-30T10:06:17;7.10;;;3.03;;
39740;SDS011;25426;53.478;10.190;2023-04-30T10:08:52;6.30;;;2.92;;
39740;SDS011;25426;53.478;10.190;2023-04-30T10:11:26;6.82;;;3.13;;
39740;SDS011;25426;53.478;10.190;2023-04-30T10:13:59;5.25;;;2.88;;
39740;SDS011;25426;53.478;10.190;2023-04-30T10:16:54;6.25;;;3.45;;
39740;SDS011;25426;53.478;10.190;2023-04-30T10:19:38;5.05;;;2.90;;
39740;SDS011;25426;53.478;10.190;2023-04-30T10:22:12;6.32;;;3.15;;
39740;SDS011;25426;53.478;10.190;2023-04-30T10:24:43;6.18;;;3.00;;
39740;SDS011;25426;53.478;10.190;2023-04-30T10:27:16;7.53;;;3.38;;
39740;SDS011;25426;53.478;10.190;2023-04-30T10:29:47;7.47;;;3.33;;
39740;SDS011;25426;53.478;10.190;2023-04-30T10:32:18;5.93;;;3.20;;
39740;SDS011;25426;53.478;10.190;2023-04-30T10:34:59;5.97;;;3.33;;
39740;SDS011;25426;53.478;10.190;2023-04-30T10:37:46;6.43;;;3.25;;
39740;SDS011;25426;53.478;10.190;2023-04-30T10:40:34;5.38;;;3.05;;
39740;SDS011;25426;53.478;10.190;2023-04-30T10:43:06;6.57;;;3.05;;
39740;SDS011;25426;53.478;10.190;2023-04-30T10:45:37;6.35;;;3.08;;
39740;SDS011;25426;53.478;10.190;2023-04-30T10:48:13;7.43;;;3.58;;
39740;SDS011;25426;53.478;10.190;2023-04-30T10:50:47;6.07;;;3.35;;
39740;SDS011;25426;53.478;10.190;2023-04-30T10:53:30;7.35;;;3.45;;
39740;SDS011;25426;53.478;10.190;2023-04-30T10:56:02;6.37;;;2.83;;
39740;SDS011;25426;53.478;10.190;2023-04-30T10:58:38;5.45;;;3.25;;
39740;SDS011;25426;53.478;10.190;2023-04-30T11:01:10;6.78;;;3.08;;
39740;SDS011;25426;53.478;10.190;2023-04-30T11:06:49;6.03;;;3.20;;
39740;SDS011;25426;53.478;10.190;2023-04-30T11:09:40;7.10;;;3.10;;
39740;SDS011;25426;53.478;10.190;2023-04-30T11:12:14;7.15;;;3.38;;
39740;SDS011;25426;53.478;10.190;2023-04-30T11:14:59;6.75;;;3.42;;
39740;SDS011;25426;53.478;10.190;2023-04-30T11:17:35;5.80;;;3.22;;
39740;SDS011;25426;53.478;10.190;2023-04-30T11:20:07;6.40;;;3.63;;
39740;SDS011;25426;53.478;10.190;2023-04-30T11:22:43;6.68;;;3.17;;
39740;SDS011;25426;53.478;10.190;2023-04-30T11:25:17;7.68;;;3.45;;
39740;SDS011;25426;53.478;10.190;2023-04-30T11:27:48;6.57;;;3.33;;
39740;SDS011;25426;53.478;10.190;2023-04-30T11:30:20;7.22;;;3.30;;
39740;SDS011;25426;53.478;10.190;2023-04-30T11:32:51;5.95;;;3.15;;
39740;SDS011;25426;53.478;10.190;2023-04-30T11:35:23;7.07;;;3.42;;
39740;SDS011;25426;53.478;10.190;2023-04-30T11:37:54;8.90;;;3.50;;
39740;SDS011;25426;53.478;10.190;2023-04-30T11:41:10;7.70;;;3.80;;
39740;SDS011;25426;53.478;10.190;2023-04-30T11:43:34;6.63;;;3.40;;
39740;SDS011;25426;53.478;10.190;2023-04-30T11:46:08;5.47;;;3.00;;
39740;SDS011;25426;53.478;10.190;2023-04-30T11:48:43;6.82;;;3.17;;
39740;SDS011;25426;53.478;10.190;2023-04-30T11:51:21;5.05;;;3.03;;
39740;SDS011;25426;53.478;10.190;2023-04-30T11:53:54;6.22;;;3.33;;
39740;SDS011;25426;53.478;10.190;2023-04-30T11:56:25;5.97;;;3.00;;
39740;SDS011;25426;53.478;10.190;2023-04-30T11:58:56;7.53;;;3.42;;
39740;SDS011;25426;53.478;10.190;2023-04-30T12:01:27;7.93;;;3.55;;
39740;SDS011;25426;53.478;10.190;2023-04-30T12:03:58;6.30;;;3.28;;
39740;SDS011;25426;53.478;10.190;2023-04-30T12:06:29;6.70;;;3.22;;
39740;SDS011;25426;53.478;10.190;2023-04-30T12:09:02;6.38;;;3.00;;
39740;SDS011;25426;53.478;10.190;2023-04-30T12:11:37;5.15;;;2.90;;
39740;SDS011;25426;53.478;10.190;2023-04-30T12:14:09;5.80;;;3.80;;
39740;SDS011;25426;53.478;10.190;2023-04-30T12:19:20;5.43;;;3.10;;
39740;SDS011;25426;53.478;10.190;2023-04-30T12:21:54;6.95;;;3.20;;
39740;SDS011;25426;53.478;10.190;2023-04-30T12:24:26;6.53;;;3.83;;
39740;SDS011;25426;53.478;10.190;2023-04-30T12:26:58;7.80;;;3.63;;
39740;SDS011;25426;53.478;10.190;2023-04-30T12:29:31;6.60;;;3.53;;
39740;SDS011;25426;53.478;10.190;2023-04-30T12:32:01;6.60;;;3.60;;
39740;SDS011;25426;53.478;10.190;2023-04-30T12:34:34;7.85;;;3.47;;
39740;SDS011;25426;53.478;10.190;2023-04-30T12:37:07;7.88;;;3.55;;
39740;SDS011;25426;53.478;10.190;2023-04-30T12:39:38;7.43;;;3.25;;
39740;SDS011;25426;53.478;10.190;2023-04-30T12:42:09;7.63;;;2.83;;
39740;SDS011;25426;53.478;10.190;2023-04-30T12:44:43;7.35;;;3.55;;
39740;SDS011;25426;53.478;10.190;2023-04-30T12:47:14;7.57;;;3.20;;
39740;SDS011;25426;53.478;10.190;2023-04-30T12:49:47;4.63;;;2.80;;
39740;SDS011;25426;53.478;10.190;2023-04-30T12:52:22;7.13;;;3.60;;
39740;SDS011;25426;53.478;10.190;2023-04-30T12:54:55;6.40;;;3.10;;
39740;SDS011;25426;53.478;10.190;2023-04-30T12:57:26;6.82;;;3.35;;
39740;SDS011;25426;53.478;10.190;2023-04-30T12:59:58;6.68;;;3.03;;
39740;SDS011;25426;53.478;10.190;2023-04-30T13:02:29;5.83;;;3.00;;
39740;SDS011;25426;53.478;10.190;2023-04-30T13:05:00;5.93;;;3.30;;
39740;SDS011;25426;53.478;10.190;2023-04-30T13:07:36;6.72;;;3.33;;
39740;SDS011;25426;53.478;10.190;2023-04-30T13:10:08;7.28;;;3.38;;
39740;SDS011;25426;53.478;10.190;2023-04-30T13:12:39;6.35;;;3.05;;
39740;SDS011;25426;53.478;10.190;2023-04-30T13:15:10;5.27;;;2.63;;
39740;SDS011;25426;53.478;10.190;2023-04-30T13:17:47;5.55;;;3.30;;
39740;SDS011;25426;53.478;10.190;2023-04-30T13:20:20;6.68;;;2.95;;
39740;SDS011;25426;53.478;10.190;2023-04-30T13:22:51;5.90;;;3.33;;
39740;SDS011;25426;53.478;10.190;2023-04-30T13:25:22;4.75;;;3.08;;
39740;SDS011;25426;53.478;10.190;2023-04-30T13:27:53;9.93;;;3.57;;
39740;SDS011;25426;53.478;10.190;2023-04-30T13:30:24;4.80;;;3.08;;
39740;SDS011;25426;53.478;10.190;2023-04-30T13:32:55;5.03;;;3.33;;
39740;SDS011;25426;53.478;10.190;2023-04-30T13:35:28;5.50;;;3.25;;
39740;SDS011;25426;53.478;10.190;2023-04-30T13:37:59;7.13;;;3.67;;
39740;SDS011;25426;53.478;10.190;2023-04-30T13:40:30;5.85;;;3.10;;
39740;SDS011;25426;53.478;10.190;2023-04-30T13:43:01;5.78;;;2.95;;
39740;SDS011;25426;53.478;10.190;2023-04-30T13:45:32;8.00;;;4.07;;
39740;SDS011;25426;53.478;10.190;2023-04-30T13:48:03;5.03;;;3.03;;
39740;SDS011;25426;53.478;10.190;2023-04-30T13:50:34;7.63;;;3.80;;
39740;SDS011;25426;53.478;10.190;2023-04-30T13:53:05;7.13;;;3.20;;
39740;SDS011;25426;53.478;10.190;2023-04-30T13:55:36;8.10;;;3.70;;
39740;SDS011;25426;53.478;10.190;2023-04-30T13:58:07;8.73;;;3.80;;
39740;SDS011;25426;53.478;10.190;2023-04-30T14:00:38;6.33;;;3.63;;
39740;SDS011;25426;53.478;10.190;2023-04-30T14:03:09;7.25;;;3.45;;
39740;SDS011;25426;53.478;10.190;2023-04-30T14:05:41;7.95;;;3.67;;
39740;SDS011;25426;53.478;10.190;2023-04-30T14:08:12;6.93;;;3.50;;
39740;SDS011;25426;53.478;10.190;2023-04-30T14:10:42;10.18;;;3.70;;
39740;SDS011;25426;53.478;10.190;2023-04-30T14:13:13;7.50;;;3.93;;
39740;SDS011;25426;53.478;10.190;2023-04-30T14:15:45;8.45;;;3.67;;
39740;SDS011;25426;53.478;10.190;2023-04-30T14:18:17;8.80;;;3.72;;
39740;SDS011;25426;53.478;10.190;2023-04-30T14:20:51;5.63;;;3.22;;
39740;SDS011;25426;53.478;10.190;2023-04-30T14:23:22;6.67;;;3.50;;
39740;SDS011;25426;53.478;10.190;2023-04-30T14:25:53;7.22;;;3.75;;
39740;SDS011;25426;53.478;10.190;2023-04-30T14:28:24;8.20;;;3.38;;
39740;SDS011;25426;53.478;10.190;2023-04-30T14:30:55;7.70;;;3.70;;
39740;SDS011;25426;53.478;10.190;2023-04-30T14:33:26;8.50;;;4.00;;
39740;SDS011;25426;53.478;10.190;2023-04-30T14:35:57;6.22;;;3.38;;
39740;SDS011;25426;53.478;10.190;2023-04-30T14:38:31;7.18;;;3.53;;
39740;SDS011;25426;53.478;10.190;2023-04-30T14:41:02;7.63;;;3.53;;
39740;SDS011;25426;53.478;10.190;2023-04-30T14:43:33;6.60;;;3.55;;
39740;SDS011;25426;53.478;10.190;2023-04-30T14:46:04;6.43;;;3.42;;
39740;SDS011;25426;53.478;10.190;2023-04-30T14:48:35;6.27;;;3.40;;
39740;SDS011;25426;53.478;10.190;2023-04-30T14:51:06;7.67;;;3.73;;
39740;SDS011;25426;53.478;10.190;2023-04-30T14:53:37;8.02;;;4.28;;
39740;SDS011;25426;53.478;10.190;2023-04-30T14:56:08;7.40;;;4.28;;
39740;SDS011;25426;53.478;10.190;2023-04-30T14:58:39;6.22;;;3.85;;
39740;SDS011;25426;53.478;10.190;2023-04-30T15:01:10;9.88;;;4.00;;
39740;SDS011;25426;53.478;10.190;2023-04-30T15:03:41;7.27;;;3.93;;
39740;SDS011;25426;53.478;10.190;2023-04-30T15:06:12;8.80;;;4.20;;
39740;SDS011;25426;53.478;10.190;2023-04-30T15:08:44;7.30;;;4.10;;
39740;SDS011;25426;53.478;10.190;2023-04-30T15:11:15;7.38;;;3.67;;
39740;SDS011;25426;53.478;10.190;2023-04-30T15:13:47;9.10;;;4.18;;
39740;SDS011;25426;53.478;10.190;2023-04-30T15:16:18;7.43;;;3.75;;
39740;SDS011;25426;53.478;10.190;2023-04-30T15:18:48;7.20;;;3.58;;
39740;SDS011;25426;53.478;10.190;2023-04-30T15:21:19;8.67;;;4.23;;
39740;SDS011;25426;53.478;10.190;2023-04-30T15:23:50;7.75;;;3.67;;
39740;SDS011;25426;53.478;10.190;2023-04-30T15:26:22;7.97;;;3.90;;
39740;SDS011;25426;53.478;10.190;2023-04-30T15:28:54;9.60;;;4.13;;
39740;SDS011;25426;53.478;10.190;2023-04-30T15:31:25;8.27;;;3.80;;
39740;SDS011;25426;53.478;10.190;2023-04-30T15:33:56;8.48;;;4.07;;
39740;SDS011;25426;53.478;10.190;2023-04-30T15:36:27;6.93;;;3.90;;
39740;SDS011;25426;53.478;10.190;2023-04-30T15:38:58;7.68;;;4.70;;
39740;SDS011;25426;53.478;10.190;2023-04-30T15:41:30;9.30;;;4.35;;
39740;SDS011;25426;53.478;10.190;2023-04-30T15:44:01;8.25;;;4.30;;
39740;SDS011;25426;53.478;10.190;2023-04-30T15:46:31;7.15;;;3.60;;
39740;SDS011;25426;53.478;10.190;2023-04-30T15:49:02;7.68;;;3.95;;
39740;SDS011;25426;53.478;10.190;2023-04-30T15:51:33;7.33;;;3.80;;
39740;SDS011;25426;53.478;10.190;2023-04-30T15:54:05;8.85;;;4.47;;
39740;SDS011;25426;53.478;10.190;2023-04-30T15:56:36;6.35;;;4.18;;
39740;SDS011;25426;53.478;10.190;2023-04-30T15:59:08;6.35;;;3.40;;
39740;SDS011;25426;53.478;10.190;2023-04-30T16:01:41;8.07;;;4.05;;
39740;SDS011;25426;53.478;10.190;2023-04-30T16:04:12;8.40;;;4.20;;
39740;SDS011;25426;53.478;10.190;2023-04-30T16:06:43;8.23;;;3.97;;
39740;SDS011;25426;53.478;10.190;2023-04-30T16:09:14;8.25;;;4.10;;
39740;SDS011;25426;53.478;10.190;2023-04-30T16:11:49;8.20;;;4.43;;
39740;SDS011;25426;53.478;10.190;2023-04-30T16:14:21;8.27;;;4.10;;
39740;SDS011;25426;53.478;10.190;2023-04-30T16:16:52;8.13;;;4.47;;
39740;SDS011;25426;53.478;10.190;2023-04-30T16:19:32;8.02;;;4.53;;
39740;SDS011;25426;53.478;10.190;2023-04-30T16:22:03;8.65;;;4.10;;